Terminal Aerodrome Forecast
Issued by NWS

Home | Current Version | Previous Version | Text Only | Print | Product List | Glossary On
Versions: 1 2 3 4 5 6 7 8 9 10 11 12 13 14 15 16
000
FTUS45 KFGZ 252336
TAFSEZ
TAF
KSEZ 252336Z 2600/2624 21010KT P6SM SCT080
      TEMPO 2600/2602 VRB15G25KT 5SM TSRA BKN060CB
     FM260300 04008KT P6SM SCT060
     FM261800 23010G15KT P6SM BKN060
      TEMPO 2619/2623 VRB15G25KT 5SM TSRA BKN040CB=

USA.gov is the U.S. government's official web portal to all federal, state and local government web resources and services.